Main page
METAR-TAF:

METAR-TAF

Airports :

Copper Harbor, Michigan, United States

latitude: 47-28-01N, longitude: 087-52-30W, elevation: 623 ft

Current weather observation

The report was made 1 hour and 9 minutes ago, at 02:51 UTC
Wind 13 mph from the North/Northwest with gusts up to 32 mph
Temperature 43°F
Humidity 87%
Pressure 29.60 in. Hg

METAR: KP59 230251Z AUTO 33011G28KT 06/04 A2960 RMK AO1 PK WND 34035/0238 SLP025 P0003 60004 T00610044 51029

Time: 00:00 (04:00 UTC)


TAF: missing

Weather observations and forecasts of more than 4000 airports (METAR and TAF reports).

The available stations are represented by yellow and red dots on the map.

Hover mouse over dot to see the name of the station.

Then click to see weather observations and forecasts.

To change the map : click on the green buttons with a black cross to zoom in, on the green button with a dash to zoom out, or on the green arrows for adjacent maps.


METAR-TAF: